Time;durP1;ratioP1;P1;durP2;ratioP2;P2;SDS_P1;SDS_P2;PMS_P1;PMS_P2;Temp;Humidity;BMP_temperature;BMP_pressure;BME280_temperature;BME280_humidity;BME280_pressure;Samples;Min_cycle;Max_cycle;Signal;HPM_P1;HPM_P2
2023/08/21 00:01:42;;;;;;;7.47;2.23;;;;;;;17.40;100.00;102140.19;5066289;28;20179;-71
2023/08/21 00:04:07;;;;;;;7.10;2.10;;;;;;;17.47;100.00;102153.72;5071218;28;20212;-71
2023/08/21 00:06:33;;;;;;;7.40;1.60;;;;;;;17.19;100.00;102126.06;5068187;28;20254;-70
2023/08/21 00:09:00;;;;;;;5.10;1.97;;;;;;;17.30;100.00;102144.38;5069111;28;21043;-71
2023/08/21 00:11:26;;;;;;;5.93;1.70;;;;;;;17.13;100.00;102117.72;5067015;28;20175;-71
2023/08/21 00:13:51;;;;;;;5.20;1.80;;;;;;;17.32;100.00;102136.88;5068346;28;20468;-71
2023/08/21 00:16:17;;;;;;;6.80;1.75;;;;;;;16.82;100.00;102106.72;5067059;28;20179;-71
2023/08/21 00:18:43;;;;;;;3.85;1.50;;;;;;;16.73;100.00;102065.41;5068604;28;20256;-71
2023/08/21 00:21:08;;;;;;;7.37;2.30;;;;;;;17.32;100.00;102126.84;5070763;28;20777;-71
2023/08/21 00:23:34;;;;;;;5.97;1.63;;;;;;;16.94;100.00;102116.69;5067791;28;20195;-71
2023/08/21 00:25:59;;;;;;;4.63;2.03;;;;;;;16.91;100.00;102108.97;5068203;28;20179;-71
2023/08/21 00:28:25;;;;;;;6.30;1.73;;;;;;;16.92;100.00;102098.97;5067937;28;20167;-71
2023/08/21 00:30:50;;;;;;;7.45;3.05;;;;;;;17.18;100.00;102144.19;5072736;28;20194;-71
2023/08/21 00:33:16;;;;;;;5.27;1.73;;;;;;;17.06;100.00;102118.75;5065481;28;20729;-71
2023/08/21 00:35:44;;;;;;;5.73;2.10;;;;;;;17.17;100.00;102145.22;5069945;28;20225;-70
2023/08/21 00:38:10;;;;;;;6.70;1.80;;;;;;;16.92;100.00;102070.03;5070474;28;20199;-70
2023/08/21 00:40:35;;;;;;;6.35;1.85;;;;;;;17.03;100.00;102151.72;5079666;28;20432;-70
2023/08/21 00:43:00;;;;;;;4.20;1.60;;;;;;;16.82;100.00;102106.72;5070795;28;20294;-71
2023/08/21 00:45:26;;;;;;;5.87;2.00;;;;;;;16.92;100.00;102110.66;5069910;28;20277;-70
2023/08/21 00:47:51;;;;;;;5.40;1.70;;;;;;;17.12;100.00;102151.28;5070353;28;20186;-70
2023/08/21 00:50:17;;;;;;;5.70;1.43;;;;;;;16.79;100.00;102132.34;5069108;28;20208;-70
2023/08/21 00:52:46;;;;;;;5.43;1.60;;;;;;;16.91;100.00;102163.19;5066332;28;20282;-70
2023/08/21 00:55:13;;;;;;;4.70;1.83;;;;;;;16.95;100.00;102163.59;5069356;28;20175;-70
2023/08/21 00:57:39;;;;;;;8.00;2.10;;;;;;;16.75;100.00;102122.09;5067598;28;20472;-70
2023/08/21 01:00:05;;;;;;;5.87;1.87;;;;;;;16.58;100.00;102116.28;5068247;28;20470;-71
2023/08/21 01:02:31;;;;;;;6.33;1.83;;;;;;;16.77;100.00;102160.69;5068412;28;20197;-71
2023/08/21 01:04:56;;;;;;;4.60;1.63;;;;;;;16.80;100.00;102165.69;5065677;28;20428;-71
2023/08/21 01:07:22;;;;;;;3.53;1.60;;;;;;;16.81;100.00;102176.31;5061794;28;20248;-71
2023/08/21 01:10:20;;;;;;;3.97;1.50;;;;;;;16.83;100.00;102179.66;5067058;28;20183;-71
2023/08/21 01:13:16;;;;;;;4.50;1.80;;;;;;;16.82;100.00;102182.56;5062901;28;20706;-70
2023/08/21 01:15:43;;;;;;;4.67;1.47;;;;;;;16.77;100.00;102166.94;5073970;28;20433;-70
2023/08/21 01:18:10;;;;;;;5.60;2.23;;;;;;;16.80;100.00;102149.44;5065117;28;20468;-71
2023/08/21 01:20:35;;;;;;;4.60;1.70;;;;;;;16.80;100.00;102162.97;5068524;28;20949;-70
2023/08/21 01:23:08;;;;;;;7.00;1.80;;;;;;;16.86;100.00;102191.94;5065578;28;20474;-70
2023/08/21 01:25:33;;;;;;;5.00;2.10;;;;;;;16.87;100.00;102178.19;5069339;28;20205;-70
2023/08/21 01:27:59;;;;;;;9.93;2.60;;;;;;;16.66;100.00;102173.78;5065187;28;20472;-70
2023/08/21 01:30:28;;;;;;;5.33;2.10;;;;;;;16.87;100.00;102182.78;5067619;28;20309;-71
2023/08/21 01:33:10;;;;;;;8.60;1.93;;;;;;;16.83;100.00;102176.94;5068829;28;20206;-70
2023/08/21 01:35:36;;;;;;;5.97;2.60;;;;;;;16.29;100.00;102112.91;5068217;28;20440;-71
2023/08/21 01:38:03;;;;;;;6.33;2.00;;;;;;;16.47;100.00;102140.22;5064251;28;20894;-70
2023/08/21 01:40:28;;;;;;;4.47;1.83;;;;;;;16.16;100.00;102085.81;5064941;28;20194;-71
2023/08/21 01:42:54;;;;;;;7.03;1.90;;;;;;;16.62;100.00;102180.66;5067849;28;20237;-71
2023/08/21 01:45:19;;;;;;;5.80;2.10;;;;;;;16.61;100.00;102161.91;5067914;28;20193;-71
2023/08/21 01:47:45;;;;;;;7.80;1.90;;;;;;;16.70;100.00;102147.94;5066596;28;20167;-71
2023/08/21 01:50:10;;;;;;;3.90;2.50;;;;;;;16.32;100.00;102111.66;5070500;28;20198;-70
2023/08/21 01:52:36;;;;;;;4.57;1.90;;;;;;;16.46;100.00;102184.59;5066782;28;20202;-70
2023/08/21 01:55:01;;;;;;;6.87;2.00;;;;;;;16.15;100.00;102130.16;5072510;28;20175;-71
2023/08/21 01:57:27;;;;;;;5.30;2.10;;;;;;;16.56;100.00;102188.75;5069852;28;20202;-70
2023/08/21 01:59:52;;;;;;;8.00;2.20;;;;;;;16.50;100.00;102185.00;5066840;28;20175;-70
2023/08/21 02:02:17;;;;;;;12.07;3.50;;;;;;;16.08;100.00;102107.63;5068135;28;20190;-71
2023/08/21 02:04:43;;;;;;;5.17;1.97;;;;;;;16.63;100.00;102181.47;5066508;28;20182;-70
2023/08/21 02:07:08;;;;;;;4.93;1.70;;;;;;;16.23;100.00;102141.63;5066586;28;20239;-71
2023/08/21 02:09:34;;;;;;;6.23;2.13;;;;;;;16.19;100.00;102150.34;5067507;28;20182;-71
2023/08/21 02:11:59;;;;;;;5.23;1.80;;;;;;;16.54;100.00;102197.09;5068194;28;20202;-70
2023/08/21 02:14:25;;;;;;;4.30;1.57;;;;;;;16.44;100.00;102173.13;5069965;28;20183;-71
2023/08/21 02:16:50;;;;;;;6.93;2.73;;;;;;;16.54;100.00;102197.09;5070268;28;20241;-71
2023/08/21 02:19:16;;;;;;;5.60;2.10;;;;;;;16.32;100.00;102166.63;5075210;28;20655;-70
2023/08/21 02:21:41;;;;;;;5.77;2.40;;;;;;;16.35;100.00;102195.19;5073473;28;20171;-71
2023/08/21 02:24:07;;;;;;;6.67;2.40;;;;;;;16.10;100.00;102162.41;5076251;28;20269;-71
2023/08/21 02:26:33;;;;;;;5.50;2.60;;;;;;;16.19;100.00;102144.94;5070105;28;20175;-71
2023/08/21 02:28:58;;;;;;;6.43;2.10;;;;;;;16.35;100.00;102201.44;5072220;28;20262;-70
2023/08/21 02:31:24;;;;;;;5.07;1.60;;;;;;;16.24;100.00;102180.38;5067715;28;20171;-70
2023/08/21 02:33:49;;;;;;;6.63;2.00;;;;;;;15.64;100.00;102087.28;5077835;28;20198;-71
2023/08/21 02:36:16;;;;;;;10.07;2.00;;;;;;;16.39;100.00;102178.31;5069078;28;20816;-71
2023/08/21 02:38:41;;;;;;;6.30;2.20;;;;;;;16.30;100.00;102184.97;5072994;28;20203;-71
2023/08/21 02:41:07;;;;;;;5.87;2.07;;;;;;;16.28;100.00;102178.91;5072116;28;20429;-71
2023/08/21 02:43:33;;;;;;;6.80;2.00;;;;;;;16.09;100.00;102139.09;5069903;28;20207;-70
2023/08/21 02:45:58;;;;;;;5.47;1.87;;;;;;;16.35;100.00;102174.34;5070015;28;20174;-71
2023/08/21 02:48:24;;;;;;;5.23;2.37;;;;;;;16.28;100.00;102166.19;5069056;28;20429;-70
2023/08/21 02:50:49;;;;;;;3.77;1.93;;;;;;;16.36;100.00;102184.13;5074671;28;20175;-71
2023/08/21 02:53:15;;;;;;;6.20;1.90;;;;;;;16.02;100.00;102139.06;5064003;28;20226;-71
2023/08/21 02:55:40;;;;;;;3.73;1.70;;;;;;;16.15;100.00;102168.88;5070283;28;20185;-71
2023/08/21 02:58:06;;;;;;;7.03;2.27;;;;;;;15.96;100.00;102148.81;5072737;28;20199;-71
2023/08/21 03:00:31;;;;;;;6.83;1.70;;;;;;;16.24;100.00;102173.06;5074940;28;20179;-70
2023/08/21 03:02:57;;;;;;;5.30;2.07;;;;;;;16.18;100.00;102190.13;5070044;28;20199;-71
2023/08/21 03:05:22;;;;;;;4.90;1.93;;;;;;;16.09;100.00;102194.06;5070389;28;20219;-70
2023/08/21 03:07:47;;;;;;;3.50;1.63;;;;;;;16.06;100.00;102196.34;5069275;28;20678;-70
2023/08/21 03:10:13;;;;;;;4.70;1.80;;;;;;;16.04;100.00;102185.69;5068965;28;20187;-70
2023/08/21 03:12:38;;;;;;;6.50;2.70;;;;;;;16.03;100.00;102174.03;5073050;28;20198;-71
2023/08/21 03:15:04;;;;;;;6.97;2.73;;;;;;;15.84;100.00;102145.03;5070910;28;20191;-70
2023/08/21 03:17:30;;;;;;;4.60;1.73;;;;;;;16.00;100.00;102160.09;5067690;28;20198;-71
2023/08/21 03:19:55;;;;;;;2.77;1.30;;;;;;;16.11;100.00;102188.44;5071246;28;20452;-71
2023/08/21 03:22:21;;;;;;;4.50;1.57;;;;;;;15.93;100.00;102175.44;5078681;28;20202;-71
2023/08/21 03:24:46;;;;;;;6.17;2.27;;;;;;;15.78;100.00;102168.31;5078337;28;20186;-71
2023/08/21 03:27:16;;;;;;;4.13;1.53;;;;;;;15.99;100.00;102180.88;5067587;28;20425;-70
2023/08/21 03:29:48;;;;;;;4.63;1.30;;;;;;;15.60;100.00;102154.47;5069120;28;20175;-71
2023/08/21 03:32:13;;;;;;;3.80;1.20;;;;;;;15.60;100.00;102149.06;5070600;28;20449;-70
2023/08/21 03:34:39;;;;;;;2.00;1.03;;;;;;;15.91;100.00;102175.66;5069726;28;20436;-70
2023/08/21 03:37:04;;;;;;;2.60;1.20;;;;;;;15.80;100.00;102184.34;5070246;28;20561;-71
2023/08/21 03:39:30;;;;;;;2.67;1.13;;;;;;;15.50;100.00;102137.75;5073218;28;20175;-70
2023/08/21 03:41:55;;;;;;;5.70;1.50;;;;;;;15.74;100.00;102186.00;5068814;28;20822;-70
2023/08/21 03:44:21;;;;;;;3.53;1.30;;;;;;;15.37;100.00;102128.53;5067972;28;20186;-70
2023/08/21 03:46:46;;;;;;;3.70;1.60;;;;;;;15.77;100.00;102165.81;5069720;28;20236;-71
2023/08/21 03:49:11;;;;;;;6.93;1.23;;;;;;;15.59;100.00;102137.41;5068257;28;20622;-70
2023/08/21 03:51:37;;;;;;;4.37;1.40;;;;;;;15.73;100.00;102154.53;5069015;28;20177;-71
2023/08/21 03:54:02;;;;;;;4.80;1.63;;;;;;;15.49;100.00;102125.28;5069321;28;20244;-71
2023/08/21 03:56:28;;;;;;;4.23;1.30;;;;;;;15.65;100.00;102176.34;5069667;28;20944;-70
2023/08/21 03:58:53;;;;;;;2.63;1.07;;;;;;;15.54;100.00;102158.81;5066872;28;20209;-71
2023/08/21 04:01:19;;;;;;;3.20;1.40;;;;;;;15.46;100.00;102129.22;5071167;28;20269;-70
2023/08/21 04:03:44;;;;;;;5.63;1.30;;;;;;;15.50;100.00;102119.66;5068243;28;20578;-71
2023/08/21 04:06:10;;;;;;;2.57;1.20;;;;;;;15.48;100.00;102145.25;5063880;28;20677;-70
2023/08/21 04:08:35;;;;;;;4.60;1.00;;;;;;;15.69;100.00;102193.03;5066634;28;20225;-71
2023/08/21 04:11:01;;;;;;;2.40;1.23;;;;;;;15.71;100.00;102177.44;5074253;28;20179;-71
2023/08/21 04:13:26;;;;;;;2.87;1.10;;;;;;;15.30;100.00;102124.13;5067139;28;20247;-70
2023/08/21 04:15:55;;;;;;;4.70;1.40;;;;;;;15.35;100.00;102154.94;5071591;28;20424;-70
2023/08/21 04:18:20;;;;;;;2.97;1.00;;;;;;;15.22;100.00;102100.81;5069960;28;20560;-71
2023/08/21 04:20:49;;;;;;;3.23;1.07;;;;;;;15.64;100.00;102181.94;5068776;28;20474;-71
2023/08/21 04:23:15;;;;;;;2.57;1.07;;;;;;;15.59;100.00;102191.50;5066912;28;20606;-70
2023/08/21 04:25:40;;;;;;;2.30;1.10;;;;;;;15.55;100.00;102168.56;5066805;28;20425;-71
2023/08/21 04:28:07;;;;;;;4.10;1.47;;;;;;;15.54;100.00;102185.03;5067386;28;20537;-71
2023/08/21 04:30:33;;;;;;;3.30;1.10;;;;;;;15.48;100.00;102156.06;5065882;28;20178;-70
2023/08/21 04:32:59;;;;;;;2.50;1.10;;;;;;;15.43;100.00;102151.25;5068938;28;20457;-70
2023/08/21 04:35:24;;;;;;;3.20;1.37;;;;;;;15.75;100.00;102179.53;5067896;28;20635;-71
2023/08/21 04:37:50;;;;;;;3.00;1.13;;;;;;;15.48;100.00;102159.59;5069289;28;20476;-71
2023/08/21 04:40:17;;;;;;;3.13;1.10;;;;;;;15.43;100.00;102166.63;5068011;28;20175;-70
2023/08/21 04:42:43;;;;;;;3.10;1.30;;;;;;;15.33;100.00;102126.44;5067424;28;20195;-71
2023/08/21 04:45:09;;;;;;;2.93;1.20;;;;;;;15.31;100.00;102113.13;5068054;28;20413;-70
2023/08/21 04:47:35;;;;;;;3.67;1.63;;;;;;;15.52;100.00;102165.44;5071764;28;20788;-70
2023/08/21 04:50:00;;;;;;;2.83;1.37;;;;;;;15.69;100.00;102149.75;5067179;28;20671;-71
2023/08/21 04:52:26;;;;;;;4.90;1.57;;;;;;;15.35;100.00;102089.22;5065203;28;20201;-71
2023/08/21 04:54:53;;;;;;;3.67;1.50;;;;;;;15.34;100.00;102103.78;5067440;28;20171;-70
2023/08/21 04:57:18;;;;;;;3.73;1.40;;;;;;;15.55;100.00;102163.16;5064221;28;20203;-70
2023/08/21 04:59:44;;;;;;;3.43;1.40;;;;;;;15.59;100.00;102145.53;5061170;28;20779;-71
2023/08/21 05:02:10;;;;;;;4.00;1.83;;;;;;;15.41;100.00;102126.28;5065717;28;20191;-70
2023/08/21 05:04:38;;;;;;;5.07;1.73;;;;;;;15.72;100.00;102198.88;5066412;28;20178;-71
2023/08/21 05:07:04;;;;;;;3.23;1.60;;;;;;;15.43;100.00;102158.53;5066480;28;20171;-71
2023/08/21 05:09:31;;;;;;;5.10;1.67;;;;;;;15.59;100.00;102169.00;5072461;28;20428;-70
2023/08/21 05:11:56;;;;;;;3.17;1.60;;;;;;;15.73;100.00;102210.53;5072268;28;21002;-71
2023/08/21 05:14:23;;;;;;;3.13;1.67;;;;;;;15.74;100.00;102188.69;5068529;28;20432;-70
2023/08/21 05:16:49;;;;;;;6.67;2.37;;;;;;;15.63;100.00;102161.34;5064588;28;20208;-71
2023/08/21 05:19:14;;;;;;;4.40;1.90;;;;;;;15.97;100.00;102188.38;5066448;28;20947;-70
2023/08/21 05:21:40;;;;;;;3.80;1.37;;;;;;;15.78;100.00;102156.66;5066901;28;20426;-71
2023/08/21 05:24:05;;;;;;;3.70;1.53;;;;;;;15.68;100.00;102157.03;5067458;28;20216;-71
2023/08/21 05:26:31;;;;;;;2.43;1.10;;;;;;;16.08;100.00;102189.66;5069330;28;20735;-71
2023/08/21 05:28:56;;;;;;;2.93;1.20;;;;;;;15.96;100.00;102172.34;5066595;28;20651;-71
2023/08/21 05:31:22;;;;;;;4.00;1.60;;;;;;;15.23;100.00;102072.75;5065894;28;20267;-70
2023/08/21 05:33:47;;;;;;;3.50;1.20;;;;;;;15.87;100.00;102177.09;5065553;28;20224;-70
2023/08/21 05:36:12;;;;;;;2.90;1.30;;;;;;;15.93;100.00;102181.69;5066301;28;20244;-70
2023/08/21 05:38:38;;;;;;;3.73;2.00;;;;;;;16.02;100.00;102199.41;5066420;28;20225;-71
2023/08/21 05:41:04;;;;;;;2.47;1.40;;;;;;;16.01;100.00;102167.16;5066146;28;20196;-71
2023/08/21 05:43:30;;;;;;;3.05;1.70;;;;;;;15.99;100.00;102161.09;5070007;28;20209;-71
2023/08/21 05:45:56;;;;;;;3.60;1.80;;;;;;;16.19;100.00;102201.78;5064789;28;20828;-71
2023/08/21 05:48:21;;;;;;;5.43;2.00;;;;;;;16.19;100.00;102182.84;5074130;28;20495;-70
2023/08/21 05:50:51;;;;;;;3.30;1.83;;;;;;;16.16;100.00;102194.06;5065819;28;20230;-71
2023/08/21 05:53:16;;;;;;;3.17;1.77;;;;;;;16.27;100.00;102151.00;5072709;28;20251;-71
2023/08/21 05:55:42;;;;;;;4.33;1.60;;;;;;;16.42;100.00;102182.47;5073813;28;20429;-70
2023/08/21 05:58:07;;;;;;;2.47;1.33;;;;;;;16.57;100.00;102199.38;5067074;28;20205;-70
2023/08/21 06:00:34;;;;;;;3.30;1.80;;;;;;;16.66;100.00;102200.03;5066338;28;20903;-70
2023/08/21 06:02:59;;;;;;;4.50;1.87;;;;;;;16.42;100.00;102164.34;5066750;28;20674;-70
2023/08/21 06:05:24;;;;;;;5.53;2.00;;;;;;;16.71;100.00;102194.81;5067200;28;20427;-71
2023/08/21 06:07:51;;;;;;;5.33;1.53;;;;;;;16.91;100.00;102209.25;5070635;28;20175;-71
2023/08/21 06:10:17;;;;;;;4.07;2.03;;;;;;;17.00;100.00;102196.34;5068132;28;20182;-70
2023/08/21 06:12:42;;;;;;;5.70;2.30;;;;;;;17.14;100.00;102192.56;5067608;28;20470;-71
2023/08/21 06:15:08;;;;;;;8.17;2.20;;;;;;;17.27;100.00;102201.75;5068264;28;20217;-71
2023/08/21 06:17:34;;;;;;;4.07;1.90;;;;;;;17.10;100.00;102161.53;5067395;28;20203;-71
2023/08/21 06:20:00;;;;;;;4.83;2.10;;;;;;;17.40;100.00;102199.84;5068456;28;20986;-71
2023/08/21 06:22:25;;;;;;;6.67;2.40;;;;;;;17.00;100.00;102125.84;5066099;28;20729;-71
2023/08/21 06:24:51;;;;;;;3.80;2.00;;;;;;;17.35;100.00;102167.09;5066071;28;20178;-71
2023/08/21 06:27:16;;;;;;;6.43;2.83;;;;;;;17.73;100.00;102177.22;5066456;28;20655;-71
2023/08/21 06:29:41;;;;;;;7.33;2.43;;;;;;;17.60;100.00;102148.25;5065259;28;20228;-71
2023/08/21 06:32:07;;;;;;;4.70;1.70;;;;;;;17.57;100.00;102145.16;5065235;28;20199;-70
2023/08/21 06:34:32;;;;;;;5.10;2.53;;;;;;;17.65;100.00;102146.78;5065352;28;20227;-70
2023/08/21 06:36:58;;;;;;;4.90;2.20;;;;;;;17.82;100.00;102153.44;5064261;28;20293;-71
2023/08/21 06:39:23;;;;;;;5.37;2.57;;;;;;;17.81;100.00;102158.03;5068092;28;20186;-70
2023/08/21 06:41:49;;;;;;;3.93;2.20;;;;;;;18.06;100.00;102203.47;5067252;28;20179;-71
2023/08/21 06:44:14;;;;;;;11.20;2.53;;;;;;;18.10;100.00;102182.13;5064670;28;20207;-71
2023/08/21 06:46:39;;;;;;;5.10;2.10;;;;;;;18.21;100.00;102190.44;5065977;28;20186;-71
2023/08/21 06:49:05;;;;;;;10.93;2.73;;;;;;;18.21;100.00;102195.84;5066746;28;20225;-71
2023/08/21 06:51:30;;;;;;;6.50;1.90;;;;;;;18.24;100.00;102191.88;5070835;28;20179;-71
2023/08/21 06:53:56;;;;;;;5.87;2.07;;;;;;;18.43;100.00;102203.69;5066780;28;20198;-70
2023/08/21 06:56:21;;;;;;;4.57;1.43;;;;;;;18.54;100.00;102202.97;5067061;28;20631;-70
2023/08/21 06:58:47;;;;;;;7.47;1.60;;;;;;;18.60;100.00;102204.84;5065059;28;20210;-71
2023/08/21 07:01:12;;;;;;;7.10;2.07;;;;;;;18.60;100.00;102204.84;5069073;28;20194;-71
2023/08/21 07:03:38;;;;;;;2.97;0.90;;;;;;;18.49;100.00;102208.25;5068949;28;20678;-70
2023/08/21 07:06:03;;;;;;;3.63;1.20;;;;;;;18.50;100.00;102158.28;5070728;28;20197;-71
2023/08/21 07:08:29;;;;;;;3.47;1.53;;;;;;;18.84;100.00;102196.97;5069752;28;20188;-70
2023/08/21 07:10:54;;;;;;;9.50;1.50;;;;;;;18.88;100.00;102211.78;5068832;28;20703;-70
2023/08/21 07:13:20;;;;;;;4.90;1.13;;;;;;;18.58;100.00;102165.34;5070003;28;20290;-71
2023/08/21 07:15:48;;;;;;;4.83;1.03;;;;;;;18.73;100.00;102174.00;5067428;28;20651;-71
2023/08/21 07:18:14;;;;;;;4.23;1.20;;;;;;;19.03;100.00;102200.56;5073112;28;20201;-70
2023/08/21 07:20:39;;;;;;;5.20;1.30;;;;;;;18.91;100.00;102195.00;5073300;28;20425;-71
2023/08/21 07:23:06;;;;;;;4.13;1.10;;;;;;;18.97;100.00;102191.41;5067217;28;20983;-70
2023/08/21 07:25:31;;;;;;;5.27;1.20;;;;;;;19.13;100.00;102200.91;5072182;28;20187;-71
2023/08/21 07:27:57;;;;;;;5.77;1.40;;;;;;;19.04;100.00;102222.13;5068532;28;20436;-71
2023/08/21 07:30:25;;;;;;;5.53;1.40;;;;;;;19.23;100.00;102269.22;5069787;28;20190;-71
2023/08/21 07:32:53;;;;;;;4.80;1.70;;;;;;;19.20;100.00;102296.88;5066157;28;20313;-71
2023/08/21 07:35:19;;;;;;;4.65;1.20;;;;;;;19.24;100.00;102316.28;5068309;28;20441;-71
2023/08/21 07:37:45;;;;;;;4.20;1.20;;;;;;;19.09;100.00;102309.31;5070599;28;20477;-71
2023/08/21 07:40:11;;;;;;;5.10;1.33;;;;;;;19.15;100.00;102321.16;5069372;28;20482;-70
2023/08/21 07:42:37;;;;;;;3.97;1.30;;;;;;;19.38;100.00;102329.59;5069251;28;20949;-71
2023/08/21 07:45:03;;;;;;;3.17;1.20;;;;;;;19.42;100.00;102351.75;5068997;28;20425;-70
2023/08/21 07:47:28;;;;;;;5.40;1.53;;;;;;;19.10;100.00;102319.13;5070444;28;20175;-71
2023/08/21 07:49:54;;;;;;;5.50;1.43;;;;;;;19.38;100.00;102364.97;5069152;28;20235;-71
2023/08/21 07:52:20;;;;;;;4.80;0.97;;;;;;;19.37;100.00;102379.59;5068881;28;20203;-71
2023/08/21 07:54:45;;;;;;;3.47;1.00;;;;;;;19.32;100.00;102375.88;5069604;28;20187;-71
2023/08/21 07:57:11;;;;;;;3.40;1.20;;;;;;;19.26;100.00;102377.59;5067970;28;20460;-71
2023/08/21 07:59:37;;;;;;;4.80;1.30;;;;;;;19.43;100.00;102389.59;5078556;28;20178;-71
2023/08/21 08:02:03;;;;;;;5.93;1.30;;;;;;;19.47;100.00;102395.47;5068295;28;20445;-70
2023/08/21 08:04:28;;;;;;;6.00;1.20;;;;;;;19.38;100.00;102394.03;5069909;28;20229;-71
2023/08/21 08:06:54;;;;;;;3.57;1.00;;;;;;;19.80;100.00;102440.69;5069374;28;20179;-71
2023/08/21 08:09:19;;;;;;;4.43;1.03;;;;;;;19.78;100.00;102442.78;5066928;28;20191;-71
2023/08/21 08:11:45;;;;;;;3.73;1.00;;;;;;;19.75;100.00;102438.59;5067795;28;20232;-71
2023/08/21 08:14:10;;;;;;;3.43;0.90;;;;;;;19.97;100.00;102457.31;5067845;28;20179;-71
2023/08/21 08:16:36;;;;;;;3.15;0.90;;;;;;;19.93;100.00;102456.06;5070487;28;20252;-71
2023/08/21 08:19:01;;;;;;;11.90;1.70;;;;;;;20.21;100.00;102475.50;5067911;28;20202;-70
2023/08/21 08:21:27;;;;;;;3.80;1.20;;;;;;;19.93;100.00;102447.88;5068030;28;20262;-71
2023/08/21 08:23:52;;;;;;;4.93;1.13;;;;;;;19.99;100.00;102482.41;5069000;28;20199;-70
2023/08/21 08:26:18;;;;;;;6.53;1.20;;;;;;;19.93;100.00;102491.47;5068177;28;20191;-71
2023/08/21 08:28:43;;;;;;;6.60;1.43;;;;;;;20.30;100.00;102503.31;5067724;28;20655;-70
2023/08/21 08:31:16;;;;;;;2.60;1.00;;;;;;;20.16;100.00;102488.97;5067115;28;20248;-71
2023/08/21 08:33:42;;;;;;;2.20;0.93;;;;;;;20.27;100.00;102510.03;5067979;28;20203;-71
2023/08/21 08:36:08;;;;;;;3.57;1.00;;;;;;;20.42;100.00;102504.22;5068377;28;20445;-70
2023/08/21 08:38:33;;;;;;;3.33;1.10;;;;;;;20.19;100.00;102510.34;5077667;28;20452;-71
2023/08/21 08:41:02;;;;;;;8.10;1.40;;;;;;;20.39;100.00;102531.94;5069015;28;20797;-71
2023/08/21 08:43:28;;;;;;;3.13;1.07;;;;;;;20.60;100.00;102540.78;5064985;28;20202;-71
2023/08/21 08:45:58;;;;;;;3.70;0.90;;;;;;;20.37;100.00;102538.69;5070556;28;20515;-71
2023/08/21 08:48:23;;;;;;;4.10;1.10;;;;;;;20.51;100.00;102632.88;5066899;28;20405;-70
2023/08/21 08:50:51;;;;;;;3.25;0.95;;;;;;;20.79;100.00;102656.19;5070300;28;20436;-71
2023/08/21 08:53:19;;;;;;;3.35;1.00;;;;;;;20.72;100.00;102667.16;5068878;28;20198;-71
2023/08/21 08:55:45;;;;;;;4.67;1.30;;;;;;;20.89;100.00;102796.47;5069698;28;20444;-71
2023/08/21 08:58:11;;;;;;;4.60;1.60;;;;;;;20.65;100.00;102702.66;5067875;28;20476;-71
2023/08/21 09:00:37;;;;;;;5.97;1.20;;;;;;;20.66;100.00;102711.69;5068214;28;20428;-71
2023/08/21 09:03:03;;;;;;;6.03;1.40;;;;;;;20.88;100.00;102747.59;5067214;28;20672;-71
2023/08/21 09:05:29;;;;;;;3.43;0.93;;;;;;;20.79;100.00;102798.84;5074573;28;20170;-71
2023/08/21 09:08:23;;;;;;;7.83;1.20;;;;;;;20.94;100.00;102791.19;5066558;28;20424;-70
2023/08/21 09:10:49;;;;;;;6.10;1.13;;;;;;;21.02;100.00;102778.31;5069961;28;20799;-71
2023/08/21 09:13:17;;;;;;;3.90;1.00;;;;;;;20.57;100.00;102762.06;5066450;28;20453;-71
2023/08/21 09:15:46;;;;;;;5.63;1.43;;;;;;;20.88;100.00;102802.13;5067230;28;20538;-71
2023/08/21 09:18:14;;;;;;;4.43;1.30;;;;;;;21.12;100.00;102915.94;5068609;28;20469;-71
2023/08/21 09:20:40;;;;;;;3.93;0.90;;;;;;;21.11;100.00;102959.81;5067482;28;20516;-70
2023/08/21 09:23:06;;;;;;;3.47;1.00;;;;;;;21.03;100.00;102812.72;5069077;28;20993;-70
2023/08/21 09:25:37;;;;;;;4.90;1.07;;;;;;;21.22;100.00;102746.25;5067694;28;20603;-71
2023/08/21 09:28:08;;;;;;;3.80;0.97;;;;;;;21.01;100.00;102531.16;5071146;28;20508;-71
2023/08/21 09:30:45;;;;;;;3.33;0.90;;;;;;;21.27;100.00;102484.44;5065063;28;20933;-71
2023/08/21 09:33:11;;;;;;;2.40;1.03;;;;;;;21.33;100.00;102479.94;5070224;28;20456;-71
2023/08/21 09:35:37;;;;;;;3.83;1.20;;;;;;;21.41;100.00;102461.38;5068392;28;20429;-71
2023/08/21 09:38:03;;;;;;;6.07;0.97;;;;;;;21.51;100.00;102460.81;5067735;28;20241;-71
2023/08/21 09:40:30;;;;;;;4.83;1.20;;;;;;;21.52;100.00;102453.44;5068467;28;21441;-71
2023/08/21 09:42:59;;;;;;;3.53;1.07;;;;;;;21.60;100.00;102472.22;5068525;28;20460;-71
2023/08/21 09:45:26;;;;;;;2.47;0.80;;;;;;;21.49;100.00;102467.56;5072017;28;20798;-71
2023/08/21 09:47:54;;;;;;;2.17;0.90;;;;;;;21.75;100.00;102483.53;5065515;28;20440;-71
2023/08/21 09:50:21;;;;;;;4.00;1.20;;;;;;;21.75;100.00;102479.97;5067335;28;20523;-71
2023/08/21 09:52:47;;;;;;;3.50;1.10;;;;;;;21.78;100.00;102480.34;5068835;28;20464;-71
2023/08/21 09:55:14;;;;;;;2.50;0.80;;;;;;;21.73;100.00;102442.00;5077216;28;21149;-71
2023/08/21 09:57:43;;;;;;;3.30;1.30;;;;;;;21.97;100.00;102442.84;5067065;28;21372;-71
2023/08/21 10:00:15;;;;;;;5.13;1.07;;;;;;;22.06;100.00;102441.44;5065692;28;20464;-71
2023/08/21 10:02:47;;;;;;;4.50;1.13;;;;;;;21.80;100.00;102442.72;5066133;28;20441;-71
2023/08/21 10:05:14;;;;;;;3.80;1.13;;;;;;;21.96;100.00;102438.47;5064657;28;20457;-71
2023/08/21 10:07:42;;;;;;;4.30;1.00;;;;;;;21.99;100.00;102445.38;5067974;28;20967;-70
2023/08/21 10:10:09;;;;;;;4.23;1.20;;;;;;;22.06;100.00;102441.44;5068091;28;20429;-71
2023/08/21 10:12:34;;;;;;;4.37;1.10;;;;;;;22.15;100.00;102436.44;5069805;28;20489;-71
2023/08/21 10:15:01;;;;;;;2.70;0.90;;;;;;;21.94;100.00;102424.22;5066998;28;20433;-71
2023/08/21 10:17:26;;;;;;;8.73;1.13;;;;;;;21.65;100.00;102330.38;5068718;28;20210;-71
2023/08/21 10:19:53;;;;;;;4.80;1.47;;;;;;;22.39;100.00;102409.97;5065088;28;20478;-71
2023/08/21 10:22:39;;;;;;;4.90;1.10;;;;;;;22.22;100.00;102409.88;5065625;28;20248;-71
2023/08/21 10:25:19;;;;;;;2.20;0.73;;;;;;;22.07;100.00;102365.75;5069374;28;20916;-70
2023/08/21 10:27:46;;;;;;;3.10;0.80;;;;;;;22.25;100.00;102387.53;5067013;28;20421;-71
2023/08/21 10:30:14;;;;;;;3.40;1.13;;;;;;;22.45;100.00;102380.81;5070634;28;20428;-71
2023/08/21 10:32:59;;;;;;;4.63;1.30;;;;;;;22.77;100.00;102382.06;5070396;28;20826;-71
2023/08/21 10:35:28;;;;;;;3.90;1.17;;;;;;;22.70;100.00;102375.88;5072427;28;20440;-71
2023/08/21 10:38:17;;;;;;;4.20;1.17;;;;;;;22.63;100.00;102377.09;5075768;28;20468;-71
2023/08/21 10:41:12;;;;;;;5.13;1.10;;;;;;;22.70;100.00;102358.63;5076237;28;20441;-71
2023/08/21 10:43:44;;;;;;;5.10;1.40;;;;;;;22.79;100.00;102358.00;5072913;28;21114;-71
2023/08/21 10:46:10;;;;;;;5.30;1.23;;;;;;;22.75;100.00;102367.78;5071684;28;20436;-71
2023/08/21 10:48:37;;;;;;;5.63;1.23;;;;;;;22.78;100.00;102326.25;5068584;28;20428;-71
2023/08/21 10:51:04;;;;;;;2.90;0.93;;;;;;;23.05;100.00;102365.91;5068907;28;20451;-71
2023/08/21 10:53:31;;;;;;;4.00;1.13;;;;;;;22.68;100.00;102320.63;5067694;28;21027;-71
2023/08/21 10:55:57;;;;;;;5.63;1.30;;;;;;;22.70;100.00;102359.47;5074078;28;20433;-71
2023/08/21 10:58:23;;;;;;;5.40;1.60;;;;;;;23.01;100.00;102358.19;5069550;28;20468;-71
2023/08/21 11:01:01;;;;;;;3.10;1.00;;;;;;;23.01;100.00;102360.91;5070539;28;21264;-71
2023/08/21 11:03:27;;;;;;;5.60;1.20;;;;;;;23.16;100.00;102330.25;5070045;28;20448;-71
2023/08/21 11:06:06;;;;;;;8.50;1.50;;;;;;;22.91;100.00;102332.50;5070138;28;20468;-71
2023/08/21 11:08:33;;;;;;;4.37;1.20;;;;;;;22.84;100.00;102323.63;5067769;28;20212;-71
2023/08/21 11:11:00;;;;;;;5.50;1.50;;;;;;;23.32;100.00;102342.31;5071404;28;21068;-71
2023/08/21 11:13:26;;;;;;;3.50;1.30;;;;;;;23.28;100.00;102352.09;5068884;28;20452;-71
2023/08/21 11:16:03;;;;;;;4.27;1.20;;;;;;;23.36;100.00;102356.34;5072084;28;20786;-71